»·PEaware :: N171TB KFTG-KPPA

N171TB :: KFTG-KPPA

FLIGHT INFORMATION

Flight Status: Arrived
Operator: Privately registered:
United States
More flights under this callsign
Pilot: Jim P. (2486)
Aircraft: Unknown
(LNC2)
More flights by this aircraft type
Origin: KFTG Front Range
United States
Destination: KPPA Perry Lefors
United States
More flights between these airports :: More routes between these airports
Route: +FQF V389 PUB V81 DHT V272 BGD
File this flight plan on PilotEdge
Remarks:
Altitude:
(Current/Filed)
9,000ft
Speed:
(Current/Filed)
220kts
Departed: 05-Apr-19 12:30 PM
Arrived: 05-Apr-19 02:13 PM
Distance/Time
Traveled:
302nm/1:42
Distance/Time
To Go:
Arrived

Flight Plot

Page will automatically refresh every two minutes.


Map Options




Map Legend


Flown Route
Filed Route
Departure Airport
Arrival Airport
Navaid (VOR, NDB)
Fix

Horizontal Profiles

Position Reports

Time Latitude Longitude Heading Altitude Ground
Speed
05-Apr-19 12:08 39.791015 -104.549447 179 5473ft 0kts
05-Apr-19 12:09 39.791013 -104.549447 179 5473ft 0kts
05-Apr-19 12:10 39.791011 -104.549447 179 5473ft 0kts
05-Apr-19 12:11 39.791009 -104.549447 179 5473ft 0kts
05-Apr-19 12:12 39.791006 -104.549446 179 5473ft 0kts
05-Apr-19 12:13 39.791006 -104.549446 179 5473ft 0kts
05-Apr-19 12:14 39.791005 -104.549446 179 5473ft 0kts
05-Apr-19 12:15 39.791005 -104.549446 179 5473ft 0kts
05-Apr-19 12:16 39.791004 -104.549446 179 5473ft 0kts
05-Apr-19 12:17 39.791004 -104.549446 179 5473ft 0kts
05-Apr-19 12:18 39.791003 -104.549446 179 5473ft 0kts
05-Apr-19 12:19 39.791002 -104.549446 179 5473ft 0kts
05-Apr-19 12:20 39.791002 -104.549446 179 5473ft 0kts
05-Apr-19 12:21 39.791001 -104.549446 179 5473ft 0kts
05-Apr-19 12:22 39.790894 -104.549040 164 5473ft 4kts
05-Apr-19 12:23 39.791210 -104.544920 77 5473ft 14kts
05-Apr-19 12:24 39.791792 -104.540413 92 5473ft 19kts
05-Apr-19 12:25 39.791732 -104.532458 91 5473ft 22kts
05-Apr-19 12:26 39.789311 -104.530288 181 5473ft 15kts
05-Apr-19 12:27 39.785471 -104.529911 95 5473ft 12kts
05-Apr-19 12:28 39.785405 -104.525141 90 5473ft 0kts
05-Apr-19 12:29 39.783953 -104.524162 178 5473ft 56kts
05-Apr-19 12:30 39.745410 -104.529361 206 6532ft 182kts
05-Apr-19 12:31 39.702757 -104.567296 212 7869ft 173kts
05-Apr-19 12:32 39.667405 -104.600165 213 9547ft 143kts
05-Apr-19 12:33 39.622710 -104.600755 143 9337ft 207kts
05-Apr-19 12:34 39.578076 -104.551820 140 9326ft 210kts
05-Apr-19 12:35 39.531055 -104.506574 168 9343ft 215kts
05-Apr-19 12:36 39.470135 -104.503846 175 9339ft 222kts
05-Apr-19 12:37 39.408973 -104.489693 164 9340ft 224kts
05-Apr-19 12:38 39.350372 -104.460706 161 9341ft 225kts
05-Apr-19 12:39 39.291233 -104.433568 160 9340ft 225kts
05-Apr-19 12:40 39.232161 -104.406076 160 9340ft 225kts
05-Apr-19 12:41 39.172373 -104.386841 195 9354ft 224kts
05-Apr-19 12:42 39.116664 -104.423429 208 9347ft 226kts
05-Apr-19 12:43 39.061709 -104.463342 208 9348ft 226kts
05-Apr-19 12:44 39.005002 -104.496664 189 9352ft 225kts
05-Apr-19 12:45 38.942676 -104.499194 169 9353ft 226kts
05-Apr-19 12:46 38.880657 -104.483270 168 9309ft 228kts
05-Apr-19 12:47 38.819137 -104.463306 168 9302ft 227kts
05-Apr-19 12:48 38.756224 -104.459457 179 9295ft 226kts
05-Apr-19 12:49 38.693736 -104.455985 176 9293ft 223kts
05-Apr-19 12:50 38.631721 -104.451980 176 9291ft 223kts
05-Apr-19 12:51 38.569743 -104.447862 176 9286ft 223kts
05-Apr-19 12:52 38.507567 -104.443705 176 9283ft 223kts
05-Apr-19 12:53 38.445911 -104.439564 176 9353ft 221kts
05-Apr-19 12:54 38.384170 -104.435447 176 9352ft 223kts
05-Apr-19 12:55 38.322230 -104.431307 176 9350ft 223kts
05-Apr-19 12:56 38.260365 -104.424890 169 9349ft 223kts
05-Apr-19 12:57 38.215425 -104.373156 152 9345ft 223kts
05-Apr-19 12:58 38.160348 -104.339164 157 9355ft 222kts
05-Apr-19 12:59 38.105590 -104.302317 152 9354ft 223kts
05-Apr-19 13:00 38.050770 -104.265378 152 9354ft 223kts
05-Apr-19 13:01 37.995898 -104.228542 152 9355ft 223kts
05-Apr-19 13:02 37.940875 -104.191629 152 9357ft 223kts
05-Apr-19 13:03 37.886015 -104.154877 152 9358ft 223kts
05-Apr-19 13:04 37.831408 -104.117595 144 9359ft 223kts
05-Apr-19 13:05 37.787572 -104.062056 132 9359ft 223kts
05-Apr-19 13:06 37.745421 -104.004243 134 9360ft 223kts
05-Apr-19 13:07 37.701140 -103.948713 135 9360ft 223kts
05-Apr-19 13:08 37.656894 -103.893469 135 9360ft 224kts
05-Apr-19 13:09 37.607947 -103.845525 147 9361ft 223kts
05-Apr-19 13:10 37.553951 -103.807134 158 9361ft 223kts
05-Apr-19 13:11 37.495302 -103.780571 159 9360ft 223kts
05-Apr-19 13:12 37.440582 -103.743560 149 9360ft 224kts
05-Apr-19 13:13 37.387945 -103.701671 148 9361ft 224kts
05-Apr-19 13:14 37.335183 -103.660114 148 9362ft 223kts
05-Apr-19 13:15 37.282437 -103.618706 148 9363ft 223kts
05-Apr-19 13:16 37.228445 -103.580046 146 9370ft 223kts
05-Apr-19 13:17 37.178616 -103.535368 132 9350ft 225kts
05-Apr-19 13:18 37.126476 -103.495748 146 9336ft 223kts
05-Apr-19 13:19 37.073354 -103.455203 148 9338ft 223kts
05-Apr-19 13:20 37.020659 -103.414288 149 9341ft 223kts
05-Apr-19 13:21 36.968036 -103.373239 149 9344ft 223kts
05-Apr-19 13:22 36.915345 -103.332229 149 9347ft 223kts
05-Apr-19 13:23 36.862442 -103.291128 149 9350ft 223kts
05-Apr-19 13:24 36.810350 -103.248915 146 9357ft 223kts
05-Apr-19 13:26 36.761521 -103.200896 137 9360ft 224kts
05-Apr-19 13:27 36.723669 -103.138081 126 9364ft 226kts
05-Apr-19 13:28 36.685009 -103.076578 137 9366ft 225kts
05-Apr-19 13:29 36.638495 -103.024548 143 9366ft 224kts
05-Apr-19 13:30 36.589305 -102.976691 145 9366ft 224kts
05-Apr-19 13:31 36.538650 -102.931303 147 9367ft 224kts
05-Apr-19 13:32 36.486866 -102.887607 147 9368ft 224kts
05-Apr-19 13:33 36.435204 -102.844087 147 9372ft 224kts
05-Apr-19 13:34 36.383505 -102.800531 147 9376ft 224kts
05-Apr-19 13:35 36.331808 -102.756969 147 9382ft 225kts
05-Apr-19 13:36 36.280050 -102.713341 147 9387ft 225kts
05-Apr-19 13:37 36.228804 -102.668160 146 9393ft 225kts
05-Apr-19 13:38 36.178025 -102.622422 146 9398ft 226kts
05-Apr-19 13:39 36.127177 -102.576711 146 9401ft 226kts
05-Apr-19 13:40 36.087156 -102.519097 116 9406ft 230kts
05-Apr-19 13:41 36.070653 -102.442838 102 9403ft 233kts
05-Apr-19 13:42 36.052258 -102.366345 108 9404ft 232kts
05-Apr-19 13:42 36.037233 -102.302347 106 9406ft 233kts
05-Apr-19 13:44 36.017710 -102.212305 106 9411ft 233kts
05-Apr-19 13:45 35.995916 -102.137586 104 9418ft 233kts
05-Apr-19 13:46 35.978647 -102.060228 108 9420ft 233kts
05-Apr-19 13:46 35.963828 -101.996236 107 9397ft 234kts
05-Apr-19 13:47 35.945935 -101.919072 107 9413ft 233kts
05-Apr-19 13:49 35.925114 -101.829524 108 9413ft 233kts
05-Apr-19 13:49 35.910014 -101.765496 107 9414ft 233kts
05-Apr-19 13:50 35.892003 -101.688731 107 9415ft 233kts
05-Apr-19 13:51 35.873831 -101.611846 107 9421ft 233kts
05-Apr-19 13:52 35.855798 -101.535588 107 8685ft 206kts
05-Apr-19 13:53 35.841787 -101.474288 107 7171ft 187kts
05-Apr-19 13:54 35.827294 -101.411956 107 5600ft 188kts
05-Apr-19 13:55 35.824688 -101.357591 84 5423ft 145kts
05-Apr-19 13:56 35.836948 -101.314491 58 5430ft 135kts
05-Apr-19 13:57 35.857103 -101.274272 59 5427ft 138kts
05-Apr-19 13:58 35.875584 -101.233488 61 5438ft 135kts
05-Apr-19 13:59 35.891763 -101.191340 74 5445ft 137kts
05-Apr-19 14:00 35.889144 -101.145003 119 5438ft 137kts
05-Apr-19 14:01 35.859732 -101.119898 169 5441ft 130kts
05-Apr-19 14:02 35.825297 -101.128453 207 5442ft 127kts
05-Apr-19 14:03 35.795303 -101.151619 217 5437ft 127kts
05-Apr-19 14:04 35.769540 -101.181363 210 5437ft 127kts
05-Apr-19 14:05 35.735470 -101.193353 183 5431ft 128kts
05-Apr-19 14:06 35.708666 -101.167507 127 5433ft 130kts
05-Apr-19 14:07 35.689618 -101.129574 119 5433ft 130kts
05-Apr-19 14:08 35.672163 -101.090390 119 5432ft 129kts
05-Apr-19 14:09 35.656001 -101.053954 119 4779ft 111kts
05-Apr-19 14:10 35.642537 -101.023920 119 4078ft 94kts
05-Apr-19 14:11 35.627828 -100.996205 146 3487ft 100kts
05-Apr-19 14:12 35.607701 -100.993696 182 3248ft 40kts
05-Apr-19 14:13 35.607968 -100.992503 110 3248ft 10kts

Navigation Log

Ident Type
Flight plan parsing failed, navigation log unavailable